Anta, Peru
Current Conditions -  °F | °C
As of 4:00 AM on Thursday 23 Oct 2014 (Local Time) from SPRU Reporting Station
Overcast Overcast  
Wind Chill: 17°   Ceiling: 1200
Heat Index: 17°   Visibility: 5mi
Dew Point: 15°   Wind: 8mph
Humidity: 88%   Direction: 140°SE
Pressure: 29.88"   Gusts: NA
Location:  9.35°S, 77.6°W
Report Text: SPRU 230900Z 14007KT 8000 OVC012 17/15 Q1012 RMK PP000
Loading
Personal Weather Stations






























Interactive Weather Map
Tropical Storm Tracking
New forecast layout! Learn more

10-Day Weather Forecast

Advertisements
Track Severe Weather on mobile